Time,TemperatureF,DewpointF,PressureIn,WindDirection,WindDirectionDegrees,WindSpeedMPH,WindSpeedGustMPH,Humidity,HourlyPrecipIn,Conditions,Clouds,dailyrainin,SoftwareType,DateUTC
2013-02-04 00:01:00,46.0,-99.9,-100.00,South,180,6.0,6.0,-999,-99.99,,,-99.99,,2013-02-04 08:01:00,
2013-02-04 00:11:00,46.0,-99.9,-100.00,SE,135,5.0,7.0,-999,-99.99,,,-99.99,,2013-02-04 08:11:00,
2013-02-04 00:21:00,46.0,-99.9,-100.00,SE,135,5.0,7.0,-999,-99.99,,,-99.99,,2013-02-04 08:21:00,
2013-02-04 00:32:00,46.0,-99.9,-100.00,SE,135,3.0,7.0,-999,-99.99,,,-99.99,,2013-02-04 08:32:00,
2013-02-04 00:42:00,46.0,-99.9,-100.00,SE,135,3.0,6.0,-999,-99.99,,,-99.99,,2013-02-04 08:42:00,
2013-02-04 00:52:00,46.0,-99.9,-100.00,SE,135,1.0,4.0,-999,-99.99,,,-99.99,,2013-02-04 08:52:00,
2013-02-04 01:02:00,46.0,-99.9,-100.00,SE,135,1.0,4.0,-999,-99.99,,,-99.99,,2013-02-04 09:02:00,
2013-02-04 01:11:00,46.0,-99.9,-100.00,NW,315,0.0,4.0,-999,-99.99,,,-99.99,,2013-02-04 09:11:00,
2013-02-04 01:22:00,46.0,-99.9,-100.00,NW,315,0.0,4.0,-999,-99.99,,,-99.99,,2013-02-04 09:22:00,
2013-02-04 01:32:00,46.0,-99.9,-100.00,SE,135,2.0,3.0,-999,-99.99,,,-99.99,,2013-02-04 09:32:00,
2013-02-04 01:42:00,46.0,-99.9,-100.00,South,180,0.0,3.0,-999,-99.99,,,-99.99,,2013-02-04 09:42:00,
2013-02-04 01:52:00,46.0,-99.9,-100.00,SE,135,0.0,3.0,-999,-99.99,,,-99.99,,2013-02-04 09:52:00,
2013-02-04 02:02:00,46.0,-99.9,-100.00,SE,135,0.0,3.0,-999,-99.99,,,-99.99,,2013-02-04 10:02:00,
2013-02-04 02:12:00,46.0,-99.9,-100.00,SE,135,1.0,2.0,-999,-99.99,,,-99.99,,2013-02-04 10:12:00,
2013-02-04 02:22:00,46.0,-99.9,-100.00,SE,135,1.0,2.0,-999,-99.99,,,-99.99,,2013-02-04 10:22:00,
2013-02-04 02:32:00,46.0,-99.9,-100.00,SE,135,2.0,3.0,-999,-99.99,,,-99.99,,2013-02-04 10:32:00,
2013-02-04 02:42:00,46.0,-99.9,-100.00,SE,135,4.0,4.0,-999,-99.99,,,-99.99,,2013-02-04 10:42:00,
2013-02-04 02:52:00,46.0,-99.9,-100.00,SE,135,4.0,4.0,-999,-99.99,,,-99.99,,2013-02-04 10:52:00,
2013-02-04 03:02:00,46.0,-99.9,-100.00,SE,135,3.0,4.0,-999,-99.99,,,-99.99,,2013-02-04 11:02:00,
2013-02-04 03:12:00,46.0,-99.9,-100.00,SE,135,3.0,4.0,-999,-99.99,,,-99.99,,2013-02-04 11:12:00,
2013-02-04 03:22:00,46.0,-99.9,-100.00,SE,135,3.0,4.0,-999,-99.99,,,-99.99,,2013-02-04 11:22:00,
2013-02-04 03:33:00,45.0,-99.9,-100.00,SE,135,6.0,8.0,-999,-99.99,,,-99.99,,2013-02-04 11:33:00,
2013-02-04 03:42:00,45.0,-99.9,-100.00,SE,135,4.0,8.0,-999,-99.99,,,-99.99,,2013-02-04 11:42:00,
2013-02-04 03:53:00,45.0,-99.9,-100.00,SE,135,5.0,8.0,-999,-99.99,,,-99.99,,2013-02-04 11:53:00,
2013-02-04 04:03:00,45.0,-99.9,-100.00,SE,135,5.0,8.0,-999,-99.99,,,-99.99,,2013-02-04 12:03:00,
2013-02-04 04:12:00,45.0,-99.9,-100.00,SE,135,6.0,6.0,-999,-99.99,,,-99.99,,2013-02-04 12:12:00,
2013-02-04 04:22:00,45.0,-99.9,-100.00,SE,135,6.0,6.0,-999,-99.99,,,-99.99,,2013-02-04 12:22:00,
2013-02-04 04:33:00,45.0,-99.9,-100.00,SE,135,5.0,6.0,-999,-99.99,,,-99.99,,2013-02-04 12:33:00,
2013-02-04 04:42:00,45.0,-99.9,-100.00,SE,135,6.0,6.0,-999,-99.99,,,-99.99,,2013-02-04 12:42:00,
2013-02-04 04:53:00,45.0,-99.9,-100.00,SE,135,6.0,6.0,-999,-99.99,,,-99.99,,2013-02-04 12:53:00,
2013-02-04 05:03:00,45.0,-99.9,-100.00,SE,135,4.0,6.0,-999,-99.99,,,-99.99,,2013-02-04 13:03:00,
2013-02-04 05:13:00,45.0,-99.9,-100.00,SE,135,4.0,6.0,-999,-99.99,,,-99.99,,2013-02-04 13:13:00,
2013-02-04 05:22:00,45.0,-99.9,-100.00,SE,135,4.0,6.0,-999,-99.99,,,-99.99,,2013-02-04 13:22:00,
2013-02-04 05:33:00,45.0,-99.9,-100.00,SE,135,7.0,8.0,-999,-99.99,,,-99.99,,2013-02-04 13:33:00,
2013-02-04 05:42:00,45.0,-99.9,-100.00,SE,135,6.0,8.0,-999,-99.99,,,-99.99,,2013-02-04 13:42:00,
2013-02-04 05:52:00,45.0,-99.9,-100.00,SE,135,6.0,8.0,-999,-99.99,,,-99.99,,2013-02-04 13:52:00,
2013-02-04 06:03:00,45.0,-99.9,-100.00,SE,135,7.0,8.0,-999,-99.99,,,-99.99,,2013-02-04 14:03:00,
2013-02-04 06:12:00,45.0,-99.9,-100.00,SE,135,6.0,8.0,-999,-99.99,,,-99.99,,2013-02-04 14:12:00,
2013-02-04 06:23:00,45.0,-99.9,-100.00,SE,135,6.0,8.0,-999,-99.99,,,-99.99,,2013-02-04 14:23:00,
2013-02-04 06:33:00,45.0,-99.9,-100.00,SE,135,6.0,8.0,-999,-99.99,,,-99.99,,2013-02-04 14:33:00,
2013-02-04 06:42:00,45.0,-99.9,-100.00,SE,135,6.0,8.0,-999,-99.99,,,-99.99,,2013-02-04 14:42:00,
2013-02-04 06:53:00,45.0,-99.9,-100.00,SE,135,6.0,8.0,-999,-99.99,,,-99.99,,2013-02-04 14:53:00,
2013-02-04 07:04:00,45.0,-99.9,-100.00,SE,135,7.0,8.0,-999,-99.99,,,-99.99,,2013-02-04 15:04:00,
2013-02-04 07:13:00,44.0,-99.9,-100.00,SE,135,8.0,9.0,-999,-99.99,,,-99.99,,2013-02-04 15:13:00,
2013-02-04 07:24:00,44.0,-99.9,-100.00,SE,135,8.0,9.0,-999,-99.99,,,-99.99,,2013-02-04 15:24:00,
2013-02-04 07:33:00,44.0,-99.9,-100.00,SE,135,7.0,9.0,-999,-99.99,,,-99.99,,2013-02-04 15:33:00,
2013-02-04 07:43:00,44.0,-99.9,-100.00,SE,135,7.0,9.0,-999,-99.99,,,-99.99,,2013-02-04 15:43:00,
2013-02-04 07:53:00,44.0,-99.9,-100.00,SE,135,7.0,9.0,-999,-99.99,,,-99.99,,2013-02-04 15:53:00,
2013-02-04 08:03:00,44.0,-99.9,-100.00,SE,135,9.0,9.0,-999,-99.99,,,-99.99,,2013-02-04 16:03:00,
2013-02-04 08:11:00,44.0,-99.9,-100.00,SE,135,6.0,9.0,-999,-99.99,,,-99.99,,2013-02-04 16:11:00,
2013-02-04 08:23:00,44.0,-99.9,-100.00,SE,135,6.0,9.0,-999,-99.99,,,-99.99,,2013-02-04 16:23:00,
2013-02-04 08:33:00,44.0,-99.9,-100.00,SE,135,6.0,9.0,-999,-99.99,,,-99.99,,2013-02-04 16:33:00,
2013-02-04 08:43:00,44.0,-99.9,-100.00,SE,135,6.0,9.0,-999,-99.99,,,-99.99,,2013-02-04 16:43:00,
2013-02-04 10:03:00,45.0,-99.9,-100.00,SE,135,4.0,8.0,-999,-99.99,,,-99.99,,2013-02-04 18:03:00,
2013-02-04 10:12:00,46.0,-99.9,-100.00,South,180,1.0,6.0,-999,-99.99,,,-99.99,,2013-02-04 18:12:00,
2013-02-04 10:22:00,46.0,-99.9,-100.00,South,180,1.0,6.0,-999,-99.99,,,-99.99,,2013-02-04 18:22:00,
2013-02-04 10:33:00,46.0,-99.9,-100.00,SE,135,1.0,5.0,-999,-99.99,,,-99.99,,2013-02-04 18:33:00,
2013-02-04 10:42:00,46.0,-99.9,-100.00,SE,135,3.0,4.0,-999,-99.99,,,-99.99,,2013-02-04 18:42:00,
2013-02-04 10:52:00,46.0,-99.9,-100.00,SE,135,3.0,4.0,-999,-99.99,,,-99.99,,2013-02-04 18:52:00,
2013-02-04 11:02:00,47.0,-99.9,-100.00,SE,135,1.0,4.0,-999,-99.99,,,-99.99,,2013-02-04 19:02:00,
2013-02-04 11:12:00,48.0,-99.9,-100.00,SE,135,1.0,3.0,-999,-99.99,,,-99.99,,2013-02-04 19:12:00,
2013-02-04 11:23:00,48.0,-99.9,-100.00,SE,135,1.0,3.0,-999,-99.99,,,-99.99,,2013-02-04 19:23:00,
2013-02-04 11:32:00,50.0,-99.9,-100.00,West,270,1.0,3.0,-999,-99.99,,,-99.99,,2013-02-04 19:32:00,
2013-02-04 11:42:00,50.0,-99.9,-100.00,West,270,4.0,4.0,-999,-99.99,,,-99.99,,2013-02-04 19:42:00,
2013-02-04 11:52:00,50.0,-99.9,-100.00,West,270,4.0,4.0,-999,-99.99,,,-99.99,,2013-02-04 19:52:00,
2013-02-04 12:02:00,50.0,-99.9,-100.00,West,270,3.0,4.0,-999,-99.99,,,-99.99,,2013-02-04 20:02:00,
2013-02-04 12:12:00,50.0,-99.9,-100.00,West,270,7.0,9.0,-999,-99.99,,,-99.99,,2013-02-04 20:12:00,
2013-02-04 12:22:00,50.0,-99.9,-100.00,West,270,7.0,9.0,-999,-99.99,,,-99.99,,2013-02-04 20:22:00,
2013-02-04 12:32:00,52.0,-99.9,-100.00,NW,315,6.0,9.0,-999,-99.99,,,-99.99,,2013-02-04 20:32:00,
2013-02-04 12:42:00,54.0,-99.9,-100.00,NW,315,5.0,9.0,-999,-99.99,,,-99.99,,2013-02-04 20:42:00,
2013-02-04 12:52:00,54.0,-99.9,-100.00,NW,315,5.0,9.0,-999,-99.99,,,-99.99,,2013-02-04 20:52:00,
2013-02-04 13:03:00,54.0,-99.9,-100.00,NW,315,4.0,8.0,-999,-99.99,,,-99.99,,2013-02-04 21:03:00,
2013-02-04 13:12:00,54.0,-99.9,-100.00,NW,315,4.0,7.0,-999,-99.99,,,-99.99,,2013-02-04 21:12:00,
2013-02-04 13:23:00,54.0,-99.9,-100.00,NW,315,4.0,7.0,-999,-99.99,,,-99.99,,2013-02-04 21:23:00,
2013-02-04 13:32:00,51.0,-99.9,-100.00,NW,315,6.0,8.0,-999,-99.99,,,-99.99,,2013-02-04 21:32:00,
2013-02-04 13:43:00,50.0,-99.9,-100.00,West,270,6.0,8.0,-999,-99.99,,,-99.99,,2013-02-04 21:43:00,
2013-02-04 13:52:00,50.0,-99.9,-100.00,West,270,6.0,8.0,-999,-99.99,,,-99.99,,2013-02-04 21:52:00,
2013-02-04 14:03:00,49.0,-99.9,-100.00,NW,315,7.0,9.0,-999,-99.99,,,-99.99,,2013-02-04 22:03:00,
2013-02-04 14:12:00,50.0,-99.9,-100.00,West,270,7.0,9.0,-999,-99.99,,,-99.99,,2013-02-04 22:12:00,
2013-02-04 14:22:00,50.0,-99.9,-100.00,West,270,7.0,9.0,-999,-99.99,,,-99.99,,2013-02-04 22:22:00,
2013-02-04 14:33:00,50.0,-99.9,-100.00,West,270,9.0,10.0,-999,-99.99,,,-99.99,,2013-02-04 22:33:00,
2013-02-04 14:42:00,49.0,-99.9,-100.00,West,270,10.0,12.0,-999,-99.99,,,-99.99,,2013-02-04 22:42:00,
2013-02-04 14:52:00,49.0,-99.9,-100.00,West,270,10.0,12.0,-999,-99.99,,,-99.99,,2013-02-04 22:52:00,
2013-02-04 15:02:00,49.0,-99.9,-100.00,West,270,13.0,14.0,-999,-99.99,,,-99.99,,2013-02-04 23:02:00,
2013-02-04 15:11:00,48.0,-99.9,-100.00,West,270,15.0,17.0,-999,-99.99,,,-99.99,,2013-02-04 23:11:00,
2013-02-04 15:22:00,48.0,-99.9,-100.00,West,270,15.0,17.0,-999,-99.99,,,-99.99,,2013-02-04 23:22:00,
2013-02-04 15:32:00,48.0,-99.9,-100.00,West,270,12.0,17.0,-999,-99.99,,,-99.99,,2013-02-04 23:32:00,
2013-02-04 15:42:00,48.0,-99.9,-100.00,West,270,12.0,17.0,-999,-99.99,,,-99.99,,2013-02-04 23:42:00,
2013-02-04 15:53:00,48.0,-99.9,-100.00,West,270,12.0,17.0,-999,-99.99,,,-99.99,,2013-02-04 23:53:00,
2013-02-04 16:02:00,47.0,-99.9,-100.00,SW,225,14.0,18.0,-999,-99.99,,,-99.99,,2013-02-05 00:02:00,
2013-02-04 16:12:00,47.0,-99.9,-100.00,West,270,13.0,18.0,-999,-99.99,,,-99.99,,2013-02-05 00:12:00,
2013-02-04 16:22:00,47.0,-99.9,-100.00,West,270,13.0,18.0,-999,-99.99,,,-99.99,,2013-02-05 00:22:00,
2013-02-04 16:32:00,48.0,-99.9,-100.00,West,270,12.0,18.0,-999,-99.99,,,-99.99,,2013-02-05 00:32:00,
2013-02-04 16:42:00,48.0,-99.9,-100.00,West,270,12.0,14.0,-999,-99.99,,,-99.99,,2013-02-05 00:42:00,
2013-02-04 16:52:00,48.0,-99.9,-100.00,West,270,12.0,14.0,-999,-99.99,,,-99.99,,2013-02-05 00:52:00,
2013-02-04 17:02:00,48.0,-99.9,-100.00,West,270,12.0,15.0,-999,-99.99,,,-99.99,,2013-02-05 01:02:00,
2013-02-04 17:12:00,48.0,-99.9,-100.00,West,270,10.0,15.0,-999,-99.99,,,-99.99,,2013-02-05 01:12:00,
2013-02-04 17:22:00,48.0,-99.9,-100.00,West,270,10.0,15.0,-999,-99.99,,,-99.99,,2013-02-05 01:22:00,
2013-02-04 17:33:00,47.0,-99.9,-100.00,SW,225,11.0,16.0,-999,-99.99,,,-99.99,,2013-02-05 01:33:00,
2013-02-04 17:42:00,47.0,-99.9,-100.00,SW,225,8.0,16.0,-999,-99.99,,,-99.99,,2013-02-05 01:42:00,
2013-02-04 17:52:00,47.0,-99.9,-100.00,SW,225,8.0,16.0,-999,-99.99,,,-99.99,,2013-02-05 01:52:00,
2013-02-04 18:02:00,47.0,-99.9,-100.00,SW,225,8.0,16.0,-999,-99.99,,,-99.99,,2013-02-05 02:02:00,
2013-02-04 18:12:00,47.0,-99.9,-100.00,SW,225,8.0,12.0,-999,-99.99,,,-99.99,,2013-02-05 02:12:00,
2013-02-04 18:22:00,47.0,-99.9,-100.00,SW,225,8.0,12.0,-999,-99.99,,,-99.99,,2013-02-05 02:22:00,
2013-02-04 18:32:00,47.0,-99.9,-100.00,SW,225,9.0,12.0,-999,-99.99,,,-99.99,,2013-02-05 02:32:00,
2013-02-04 18:42:00,47.0,-99.9,-100.00,SW,225,10.0,14.0,-999,-99.99,,,-99.99,,2013-02-05 02:42:00,
2013-02-04 18:52:00,47.0,-99.9,-100.00,SW,225,10.0,14.0,-999,-99.99,,,-99.99,,2013-02-05 02:52:00,
2013-02-04 19:02:00,47.0,-99.9,-100.00,SW,225,8.0,14.0,-999,-99.99,,,-99.99,,2013-02-05 03:02:00,
2013-02-04 19:11:00,47.0,-99.9,-100.00,SW,225,4.0,12.0,-999,-99.99,,,-99.99,,2013-02-05 03:11:00,
2013-02-04 19:22:00,47.0,-99.9,-100.00,SW,225,4.0,12.0,-999,-99.99,,,-99.99,,2013-02-05 03:22:00,
2013-02-04 19:32:00,47.0,-99.9,-100.00,SW,225,6.0,10.0,-999,-99.99,,,-99.99,,2013-02-05 03:32:00,
2013-02-04 19:42:00,47.0,-99.9,-100.00,SW,225,8.0,11.0,-999,-99.99,,,-99.99,,2013-02-05 03:42:00,
2013-02-04 19:52:00,47.0,-99.9,-100.00,SW,225,8.0,11.0,-999,-99.99,,,-99.99,,2013-02-05 03:52:00,
2013-02-04 20:02:00,47.0,-99.9,-100.00,West,270,18.0,22.0,-999,-99.99,,,-99.99,,2013-02-05 04:02:00,
2013-02-04 20:11:00,47.0,-99.9,-100.00,SW,225,11.0,22.0,-999,-99.99,,,-99.99,,2013-02-05 04:11:00,
2013-02-04 20:22:00,47.0,-99.9,-100.00,West,270,25.0,29.0,-999,-99.99,,,-99.99,,2013-02-05 04:22:00,
2013-02-04 20:32:00,47.0,-99.9,-100.00,West,270,25.0,29.0,-999,-99.99,,,-99.99,,2013-02-05 04:32:00,
2013-02-04 20:42:00,47.0,-99.9,-100.00,West,270,24.0,30.0,-999,-99.99,,,-99.99,,2013-02-05 04:42:00,
2013-02-04 20:52:00,47.0,-99.9,-100.00,West,270,24.0,30.0,-999,-99.99,,,-99.99,,2013-02-05 04:52:00,
2013-02-04 21:03:00,47.0,-99.9,-100.00,West,270,28.0,32.0,-999,-99.99,,,-99.99,,2013-02-05 05:03:00,
2013-02-04 21:12:00,47.0,-99.9,-100.00,West,270,22.0,32.0,-999,-99.99,,,-99.99,,2013-02-05 05:12:00,
2013-02-04 21:22:00,47.0,-99.9,-100.00,West,270,22.0,32.0,-999,-99.99,,,-99.99,,2013-02-05 05:22:00,
2013-02-04 21:32:00,47.0,-99.9,-100.00,West,270,25.0,32.0,-999,-99.99,,,-99.99,,2013-02-05 05:32:00,
2013-02-04 21:42:00,47.0,-99.9,-100.00,West,270,26.0,32.0,-999,-99.99,,,-99.99,,2013-02-05 05:42:00,
2013-02-04 21:52:00,47.0,-99.9,-100.00,West,270,26.0,32.0,-999,-99.99,,,-99.99,,2013-02-05 05:52:00,
2013-02-04 22:02:00,47.0,-99.9,-100.00,West,270,26.0,32.0,-999,-99.99,,,-99.99,,2013-02-05 06:02:00,
2013-02-04 22:11:00,47.0,-99.9,-100.00,West,270,21.0,34.0,-999,-99.99,,,-99.99,,2013-02-05 06:11:00,
2013-02-04 22:22:00,47.0,-99.9,-100.00,West,270,21.0,34.0,-999,-99.99,,,-99.99,,2013-02-05 06:22:00,
2013-02-04 22:32:00,47.0,-99.9,-100.00,West,270,29.0,34.0,-999,-99.99,,,-99.99,,2013-02-05 06:32:00,
2013-02-04 22:42:00,48.0,-99.9,-100.00,West,270,30.0,37.0,-999,-99.99,,,-99.99,,2013-02-05 06:42:00,
2013-02-04 22:52:00,48.0,-99.9,-100.00,West,270,30.0,37.0,-999,-99.99,,,-99.99,,2013-02-05 06:52:00,
2013-02-04 23:01:00,48.0,-99.9,-100.00,West,270,27.0,37.0,-999,-99.99,,,-99.99,,2013-02-05 07:01:00,
2013-02-04 23:12:00,47.0,-99.9,-100.00,West,270,29.0,36.0,-999,-99.99,,,-99.99,,2013-02-05 07:12:00,
2013-02-04 23:22:00,47.0,-99.9,-100.00,West,270,29.0,36.0,-999,-99.99,,,-99.99,,2013-02-05 07:22:00,
2013-02-04 23:32:00,47.0,-99.9,-100.00,West,270,29.0,37.0,-999,-99.99,,,-99.99,,2013-02-05 07:32:00,
2013-02-04 23:42:00,47.0,-99.9,-100.00,West,270,30.0,37.0,-999,-99.99,,,-99.99,,2013-02-05 07:42:00,
2013-02-04 23:52:00,47.0,-99.9,-100.00,West,270,30.0,37.0,-999,-99.99,,,-99.99,,2013-02-05 07:52:00,